Time;durP1;ratioP1;P1;durP2;ratioP2;P2;SDS_P1;SDS_P2;PMS_P1;PMS_P2;Temp;Humidity;BMP_temperature;BMP_pressure;BME280_temperature;BME280_humidity;BME280_pressure;Samples;Min_cycle;Max_cycle;Signal;HPM_P1;HPM_P2
2021/11/11 00:02:20;;;;;;;;;;;;;;;0.34;73.53;103278.58;1852847;77;20393;-63
2021/11/11 00:04:48;;;;;;;;;;;;;;;0.31;73.59;103284.91;1852876;77;20153;-63
2021/11/11 00:07:16;;;;;;;;;;;;;;;0.29;73.77;103283.53;1852866;77;20115;-63
2021/11/11 00:09:44;;;;;;;;;;;;;;;0.29;73.93;103278.77;1852872;77;20114;-63
2021/11/11 00:12:12;;;;;;;;;;;;;;;0.30;73.91;103278.84;1852844;77;20119;-63
2021/11/11 00:14:41;;;;;;;;;;;;;;;0.33;73.94;103278.08;1852861;77;20127;-62
2021/11/11 00:17:08;;;;;;;;;;;;;;;0.37;73.97;103273.11;1852959;77;20103;-62
2021/11/11 00:19:36;;;;;;;;;;;;;;;0.37;73.92;103270.52;1852956;77;20153;-63
2021/11/11 00:22:04;;;;;;;;;;;;;;;0.38;74.07;103266.22;1852964;77;20123;-63
2021/11/11 00:24:32;;;;;;;;;;;;;;;0.39;74.09;103270.59;1853092;77;20130;-63
2021/11/11 00:27:00;;;;;;;;;;;;;;;0.43;74.20;103264.72;1852927;77;20119;-63
2021/11/11 00:29:28;;;;;;;;;;;;;;;0.45;74.15;103276.45;1853009;77;20885;-63
2021/11/11 00:31:56;;;;;;;;;;;;;;;0.48;74.16;103269.70;1852888;77;20119;-63
2021/11/11 00:34:24;;;;;;;;;;;;;;;0.49;74.12;103274.47;1852905;77;20149;-63
2021/11/11 00:36:52;;;;;;;;;;;;;;;0.52;74.10;103274.61;1852964;77;20119;-63
2021/11/11 00:39:20;;;;;;;;;;;;;;;0.55;74.17;103276.92;1852922;77;20181;-63
2021/11/11 00:41:48;;;;;;;;;;;;;;;0.58;74.22;103276.16;1852895;77;20106;-63
2021/11/11 00:44:17;;;;;;;;;;;;;;;0.60;74.20;103270.63;1852901;77;20161;-63
2021/11/11 00:46:46;;;;;;;;;;;;;;;0.61;74.17;103269.81;1860259;76;20122;-63
2021/11/11 00:49:15;;;;;;;;;;;;;;;0.65;74.15;103271.71;1863862;77;20389;-63
2021/11/11 00:51:43;;;;;;;;;;;;;;;0.67;74.15;103262.28;1863667;77;20157;-63
2021/11/11 00:54:11;;;;;;;;;;;;;;;0.68;74.18;103260.56;1863642;77;20122;-63
2021/11/11 00:56:39;;;;;;;;;;;;;;;0.68;74.11;103252.41;1863725;77;20122;-63
2021/11/11 00:59:10;;;;;;;;;;;;;;;0.69;74.20;103254.16;1863793;77;20106;-63
2021/11/11 01:01:37;;;;;;;;;;;;;;;0.69;74.19;103258.05;1863819;77;20114;-64
2021/11/11 01:04:05;;;;;;;;;;;;;;;0.70;74.26;103256.33;1863738;77;20385;-63
2021/11/11 01:06:34;;;;;;;;;;;;;;;0.69;74.17;103255.45;1863647;77;20114;-65
2021/11/11 01:09:02;;;;;;;;;;;;;;;0.70;74.19;103253.35;1863655;77;20122;-63
2021/11/11 01:11:30;;;;;;;;;;;;;;;0.70;74.20;103253.35;1863632;77;20110;-63
2021/11/11 01:13:58;;;;;;;;;;;;;;;0.72;74.21;103263.77;1863760;77;20126;-63
2021/11/11 01:16:26;;;;;;;;;;;;;;;0.71;74.15;103249.04;1863742;77;20119;-63
2021/11/11 01:18:53;;;;;;;;;;;;;;;0.72;74.13;103253.00;1863737;77;20153;-63
2021/11/11 01:21:22;;;;;;;;;;;;;;;0.74;74.05;103260.43;1863633;77;20145;-64
2021/11/11 01:23:50;;;;;;;;;;;;;;;0.77;74.05;103255.77;1863679;77;20142;-63
2021/11/11 01:26:18;;;;;;;;;;;;;;;0.75;74.03;103252.23;1863812;77;20111;-63
2021/11/11 01:28:45;;;;;;;;;;;;;;;0.72;74.01;103260.78;1863689;77;20118;-64
2021/11/11 01:31:15;;;;;;;;;;;;;;;0.73;74.01;103266.84;1863181;77;20110;-63
2021/11/11 01:33:45;;;;;;;;;;;;;;;0.71;74.03;103260.71;1863314;77;20156;-63
2021/11/11 01:36:14;;;;;;;;;;;;;;;0.70;73.95;103265.02;1863700;77;20408;-64
2021/11/11 01:38:55;;;;;;;;;;;;;;;0.68;73.90;103266.67;1862777;77;20170;-63
2021/11/11 01:41:25;;;;;;;;;;;;;;;0.68;73.90;103273.16;1862352;77;20122;-63
2021/11/11 01:43:53;;;;;;;;;;;;;;;0.66;73.94;103271.30;1863711;77;20208;-63
2021/11/11 01:46:22;;;;;;;;;;;;;;;0.66;74.09;103276.06;1860658;77;20126;-64
2021/11/11 01:48:50;;;;;;;;;;;;;;;0.63;74.02;103277.25;1852924;77;20145;-63
2021/11/11 01:51:20;;;;;;;;;;;;;;;0.64;74.03;103279.00;1852300;77;20151;-64
2021/11/11 01:53:51;;;;;;;;;;;;;;;0.63;74.07;103279.84;1852128;77;20107;-65
2021/11/11 01:56:22;;;;;;;;;;;;;;;0.64;74.10;103284.61;1852896;77;20127;-64
2021/11/11 01:58:51;;;;;;;;;;;;;;;0.63;74.04;103283.73;1852864;77;20119;-62
2021/11/11 02:01:19;;;;;;;;;;;;;;;0.65;74.02;103292.45;1853022;77;20107;-62
2021/11/11 02:03:48;;;;;;;;;;;;;;;0.66;74.02;103286.43;1852912;77;20118;-62
2021/11/11 02:06:21;;;;;;;;;;;;;;;0.65;74.07;103287.27;1851726;77;20154;-62
2021/11/11 02:08:50;;;;;;;;;;;;;;;0.65;74.04;103289.86;1845680;77;20145;-62
2021/11/11 02:11:22;;;;;;;;;;;;;;;0.67;74.16;103285.62;1852480;77;20181;-63
2021/11/11 02:13:51;;;;;;;;;;;;;;;0.66;74.05;103294.21;1853019;77;20119;-62
2021/11/11 02:16:20;;;;;;;;;;;;;;;0.66;74.02;103296.80;1852761;77;20152;-62
2021/11/11 02:18:48;;;;;;;;;;;;;;;0.64;73.99;103289.38;1852969;77;20111;-61
2021/11/11 02:21:17;;;;;;;;;;;;;;;0.66;73.94;103286.43;1852935;77;20110;-62
2021/11/11 02:23:46;;;;;;;;;;;;;;;0.67;73.95;103288.22;1851700;77;20195;-63
2021/11/11 02:26:21;;;;;;;;;;;;;;;0.70;73.96;103285.77;1849689;77;20149;-62
2021/11/11 02:28:54;;;;;;;;;;;;;;;0.71;73.89;103291.41;1850749;77;20208;-61
2021/11/11 02:31:24;;;;;;;;;;;;;;;0.71;73.95;103297.89;1852743;77;20475;-61
2021/11/11 02:33:54;;;;;;;;;;;;;;;0.72;73.96;103295.80;1852930;77;20115;-61
2021/11/11 02:36:24;;;;;;;;;;;;;;;0.73;73.96;103290.19;1851309;77;20432;-62
2021/11/11 02:38:54;;;;;;;;;;;;;;;0.74;74.16;103295.44;1852914;77;20153;-61
2021/11/11 02:41:22;;;;;;;;;;;;;;;0.72;74.05;103288.02;1833870;77;20397;-61
2021/11/11 02:43:50;;;;;;;;;;;;;;;0.72;74.05;103293.20;1852922;77;20149;-61
2021/11/11 02:46:20;;;;;;;;;;;;;;;0.73;74.01;103289.77;1852756;77;20122;-62
2021/11/11 02:48:47;;;;;;;;;;;;;;;0.74;74.05;103297.16;1852916;77;20170;-62
2021/11/11 02:51:15;;;;;;;;;;;;;;;0.75;73.95;103297.62;1852881;77;20115;-61
2021/11/11 02:53:43;;;;;;;;;;;;;;;0.74;73.94;103290.26;1852988;77;20119;-61
2021/11/11 02:56:12;;;;;;;;;;;;;;;0.74;73.95;103288.08;1852931;77;20150;-61
2021/11/11 02:58:41;;;;;;;;;;;;;;;0.72;73.94;103296.18;1852908;77;20107;-61
2021/11/11 03:01:09;;;;;;;;;;;;;;;0.72;74.04;103293.59;1852900;77;20142;-61
2021/11/11 03:03:39;;;;;;;;;;;;;;;0.70;74.08;103294.84;1852857;77;20130;-61
2021/11/11 03:06:08;;;;;;;;;;;;;;;0.70;74.11;103290.95;1852682;77;20397;-61
2021/11/11 03:08:37;;;;;;;;;;;;;;;0.68;74.12;103279.63;1852854;77;20417;-61
2021/11/11 03:11:06;;;;;;;;;;;;;;;0.70;74.34;103277.98;1852860;77;20139;-61
2021/11/11 03:13:36;;;;;;;;;;;;;;;0.69;74.40;103271.02;1851987;77;20157;-62
2021/11/11 03:16:05;;;;;;;;;;;;;;;0.68;74.29;103270.94;1851726;77;20192;-62
2021/11/11 03:18:33;;;;;;;;;;;;;;;0.68;74.24;103273.54;1852920;77;20146;-62
2021/11/11 03:21:01;;;;;;;;;;;;;;;0.64;74.26;103269.05;1852906;77;20119;-61
2021/11/11 03:23:29;;;;;;;;;;;;;;;0.65;74.31;103278.61;1852882;77;20149;-62
2021/11/11 03:25:58;;;;;;;;;;;;;;;0.65;74.34;103279.49;1852590;77;20122;-62
2021/11/11 03:28:28;;;;;;;;;;;;;;;0.63;74.36;103279.84;1852339;77;20126;-63
2021/11/11 03:30:55;;;;;;;;;;;;;;;0.62;74.38;103284.53;1852820;77;20150;-62
2021/11/11 03:33:23;;;;;;;;;;;;;;;0.64;74.31;103285.48;1853013;77;20107;-62
2021/11/11 03:35:52;;;;;;;;;;;;;;;0.67;74.31;103293.41;1852953;77;20157;-62
2021/11/11 03:38:21;;;;;;;;;;;;;;;0.69;74.26;103293.06;1852863;77;20115;-62
2021/11/11 03:40:51;;;;;;;;;;;;;;;0.73;74.20;103296.25;1852917;77;20123;-62
2021/11/11 03:43:35;;;;;;;;;;;;;;;0.79;74.17;103286.96;1852972;77;20205;-62
2021/11/11 03:46:12;;;;;;;;;;;;;;;0.80;74.33;103287.45;1852357;77;20111;-62
2021/11/11 03:48:41;;;;;;;;;;;;;;;0.78;74.22;103289.09;1848287;77;20123;-62
2021/11/11 03:51:10;;;;;;;;;;;;;;;0.81;74.17;103286.61;1846073;78;20397;-61
2021/11/11 03:53:38;;;;;;;;;;;;;;;0.79;74.24;103282.66;1846042;78;20119;-60
2021/11/11 03:56:07;;;;;;;;;;;;;;;0.80;74.27;103279.67;1846308;78;20150;-59
2021/11/11 03:58:35;;;;;;;;;;;;;;;0.82;74.28;103278.02;1846159;78;20162;-60
2021/11/11 04:01:03;;;;;;;;;;;;;;;0.84;74.15;103283.73;1846213;78;20120;-60
2021/11/11 04:03:33;;;;;;;;;;;;;;;0.85;74.09;103289.80;1846157;78;20401;-61
2021/11/11 04:06:01;;;;;;;;;;;;;;;0.88;74.03;103297.73;1846216;78;20123;-61
2021/11/11 04:08:31;;;;;;;;;;;;;;;0.85;74.03;103298.50;1845326;77;20245;-61
2021/11/11 04:11:02;;;;;;;;;;;;;;;0.84;73.98;103293.23;1846134;78;20123;-61
2021/11/11 04:13:49;;;;;;;;;;;;;;;0.82;73.99;103293.59;1829533;78;20497;-61
2021/11/11 04:16:18;;;;;;;;;;;;;;;0.84;74.07;103286.75;1829518;78;20147;-60
2021/11/11 04:18:46;;;;;;;;;;;;;;;0.82;74.08;103281.91;1829506;78;20148;-60
2021/11/11 04:21:16;;;;;;;;;;;;;;;0.82;74.05;103280.62;1829577;78;20453;-60
2021/11/11 04:23:50;;;;;;;;;;;;;;;0.83;74.00;103287.17;1829546;78;20180;-60
2021/11/11 04:26:24;;;;;;;;;;;;;;;0.81;73.99;103287.49;1829688;78;20148;-59
2021/11/11 04:29:10;;;;;;;;;;;;;;;0.81;74.01;103284.89;1829679;78;20140;-59
2021/11/11 04:31:38;;;;;;;;;;;;;;;0.80;73.99;103284.86;1828772;78;20226;-60
2021/11/11 04:34:07;;;;;;;;;;;;;;;0.76;73.99;103291.20;1829219;78;20180;-60
2021/11/11 04:59:31;;;;;;;;;;;;;;;0.75;74.08;103303.68;1829513;78;20179;-60
2021/11/11 05:03:50;;;;;;;;;;;;;;;0.82;74.02;103310.45;1788207;78;20144;-61
2021/11/11 05:06:19;;;;;;;;;;;;;;;0.81;73.96;103311.25;1829636;78;20402;-60
2021/11/11 05:08:47;;;;;;;;;;;;;;;0.81;73.95;103314.72;1829472;78;20398;-60
2021/11/11 05:11:15;;;;;;;;;;;;;;;0.80;73.99;103318.58;1829599;78;20152;-60
2021/11/11 05:13:44;;;;;;;;;;;;;;;0.77;74.05;103319.31;1857078;77;20445;-60
2021/11/11 05:16:13;;;;;;;;;;;;;;;0.78;74.05;103324.11;1863685;76;20199;-60
2021/11/11 05:18:41;;;;;;;;;;;;;;;0.78;74.02;103321.52;1863824;77;20125;-60
2021/11/11 05:21:10;;;;;;;;;;;;;;;0.78;73.99;103326.29;1863766;77;20403;-60
2021/11/11 05:26:27;;;;;;;;;;;;;;;0.86;73.87;103335.69;1770584;80;20420;-60
2021/11/11 05:28:57;;;;;;;;;;;;;;;0.91;73.82;103330.30;1770503;81;20232;-60
2021/11/11 05:31:25;;;;;;;;;;;;;;;0.92;73.77;103333.34;1770595;81;20129;-59
2021/11/11 05:33:53;;;;;;;;;;;;;;;0.94;73.76;103331.70;1770457;81;20195;-60
2021/11/11 05:36:21;;;;;;;;;;;;;;;0.98;73.74;103330.12;1770545;81;20532;-60
2021/11/11 05:38:49;;;;;;;;;;;;;;;1.00;73.62;103326.79;1770648;81;20136;-60
2021/11/11 05:41:17;;;;;;;;;;;;;;;1.05;73.60;103329.56;1770611;80;20125;-60
2021/11/11 05:43:47;;;;;;;;;;;;;;;1.08;73.53;103326.69;1770469;81;20138;-60
2021/11/11 05:46:15;;;;;;;;;;;;;;;1.12;73.50;103323.39;1770490;81;20129;-60
2021/11/11 05:48:44;;;;;;;;;;;;;;;1.17;73.47;103325.31;1770470;81;20150;-60
2021/11/11 05:51:12;;;;;;;;;;;;;;;1.21;73.40;103325.48;1770639;81;20145;-60
2021/11/11 05:53:40;;;;;;;;;;;;;;;1.27;73.37;103324.84;1770535;81;20156;-60
2021/11/11 05:56:09;;;;;;;;;;;;;;;1.32;73.30;103320.73;1770576;81;20129;-60
2021/11/11 05:58:38;;;;;;;;;;;;;;;1.32;73.24;103312.95;1770529;81;20215;-61
2021/11/11 06:01:06;;;;;;;;;;;;;;;1.38;73.28;103313.19;1770690;81;20204;-60
2021/11/11 06:03:35;;;;;;;;;;;;;;;1.47;73.24;103316.15;1770495;80;20165;-60
2021/11/11 06:06:04;;;;;;;;;;;;;;;1.57;73.13;103310.02;1770568;81;20125;-59
2021/11/11 06:08:34;;;;;;;;;;;;;;;1.62;73.04;103302.88;1770410;81;20153;-60
2021/11/11 06:11:02;;;;;;;;;;;;;;;1.71;72.99;103291.55;1770564;80;20133;-61
2021/11/11 06:13:30;;;;;;;;;;;;;;;1.75;72.77;103289.95;1770581;81;20220;-60
2021/11/11 06:15:58;;;;;;;;;;;;;;;1.77;72.62;103289.63;1770608;81;20171;-60
2021/11/11 06:18:29;;;;;;;;;;;;;;;1.74;72.45;103286.91;1770638;81;20152;-60
2021/11/11 06:20:59;;;;;;;;;;;;;;;1.81;72.37;103284.11;1770690;81;20121;-60
2021/11/11 06:23:28;;;;;;;;;;;;;;;1.87;72.39;103290.86;1770424;81;20177;-60
2021/11/11 06:25:56;;;;;;;;;;;;;;;1.90;72.29;103289.66;1785588;79;20123;-60
2021/11/11 06:28:24;;;;;;;;;;;;;;;1.89;72.19;103293.97;1796194;80;20127;-60
2021/11/11 06:30:54;;;;;;;;;;;;;;;1.96;72.17;103290.33;1795989;80;20122;-60
2021/11/11 06:33:31;;;;;;;;;;;;;;;2.04;72.11;103283.27;1961883;73;20124;-59
2021/11/11 06:36:00;;;;;;;;;;;;;;;2.02;71.84;103276.25;1921119;75;20121;-60
2021/11/11 06:38:27;;;;;;;;;;;;;;;2.05;71.88;103278.98;1920998;75;20143;-59
2021/11/11 06:40:55;;;;;;;;;;;;;;;2.12;71.88;103280.55;1921161;75;20113;-60
2021/11/11 06:43:23;;;;;;;;;;;;;;;2.19;71.65;103275.56;1921096;75;20210;-59
2021/11/11 06:45:51;;;;;;;;;;;;;;;2.24;71.68;103273.60;1921091;75;20143;-60
2021/11/11 06:48:18;;;;;;;;;;;;;;;2.26;71.53;103271.94;1921107;75;20140;-59
2021/11/11 06:50:46;;;;;;;;;;;;;;;2.27;71.28;103273.72;1921013;73;20159;-59
2021/11/11 06:53:15;;;;;;;;;;;;;;;2.22;71.27;103274.39;1921136;75;20104;-59
2021/11/11 06:55:44;;;;;;;;;;;;;;;2.13;70.67;103270.61;1921063;75;20172;-59
2021/11/11 06:58:13;;;;;;;;;;;;;;;2.04;70.90;103265.07;1921107;75;20101;-59
2021/11/11 07:00:41;;;;;;;;;;;;;;;1.99;71.06;103268.33;1921099;75;20105;-59
2021/11/11 07:03:11;;;;;;;;;;;;;;;1.91;71.09;103264.16;1920994;74;20157;-60
2021/11/11 07:05:39;;;;;;;;;;;;;;;1.87;71.18;103266.17;1921073;74;20105;-59
2021/11/11 07:08:13;;;;;;;;;;;;;;;1.81;71.41;103262.94;1921044;75;20140;-59
2021/11/11 07:10:38;;;;;;;;;;;;;;;1.87;71.48;103268.77;1919464;74;20117;-60
2021/11/11 07:13:06;;;;;;;;;;;;;;;1.86;71.49;103256.20;1921162;75;20145;-59
2021/11/11 07:15:34;;;;;;;;;;;;;;;1.89;71.61;103257.59;1921101;75;20190;-59
2021/11/11 07:18:02;;;;;;;;;;;;;;;1.92;71.64;103252.53;1920966;75;20117;-59
2021/11/11 07:20:29;;;;;;;;;;;;;;;1.99;71.67;103248.84;1921155;75;20113;-59
2021/11/11 07:23:00;;;;;;;;;;;;;;;2.03;71.60;103252.02;1921072;75;20143;-60
2021/11/11 07:25:27;;;;;;;;;;;;;;;2.05;71.57;103255.59;1920996;74;20139;-59
2021/11/11 07:27:56;;;;;;;;;;;;;;;2.07;71.62;103257.83;1921087;74;20117;-59
2021/11/11 07:30:24;;;;;;;;;;;;;;;2.07;71.54;103251.33;1920971;74;20164;-59
2021/11/11 07:32:53;;;;;;;;;;;;;;;2.06;71.63;103258.64;1915030;74;20168;-59
2021/11/11 07:35:20;;;;;;;;;;;;;;;2.08;71.66;103253.08;1908898;75;20395;-59
2021/11/11 07:37:50;;;;;;;;;;;;;;;2.11;71.63;103251.91;1908685;75;20113;-60
2021/11/11 07:40:19;;;;;;;;;;;;;;;2.16;71.67;103247.77;1908813;75;20144;-59
2021/11/11 07:42:48;;;;;;;;;;;;;;;2.22;71.67;103250.99;1908564;75;20113;-61
2021/11/11 07:45:23;;;;;;;;;;;;;;;2.22;71.65;103240.17;1908112;75;20143;-59
2021/11/11 07:47:48;;;;;;;;;;;;;;;2.27;71.57;103239.05;1908357;74;20117;-59
2021/11/11 07:50:15;;;;;;;;;;;;;;;2.27;71.34;103230.83;1908035;75;20142;-59
2021/11/11 07:52:43;;;;;;;;;;;;;;;2.24;71.47;103229.41;1907989;75;20187;-60
2021/11/11 07:55:11;;;;;;;;;;;;;;;2.33;71.55;103229.28;1908047;75;20113;-59
2021/11/11 07:57:40;;;;;;;;;;;;;;;2.36;71.41;103222.86;1907952;75;20148;-61
2021/11/11 08:00:09;;;;;;;;;;;;;;;2.39;71.46;103222.55;1908026;75;20113;-60
2021/11/11 08:02:41;;;;;;;;;;;;;;;2.50;71.24;103216.43;1908042;75;20129;-61
2021/11/11 08:05:11;;;;;;;;;;;;;;;2.56;70.94;103215.33;1908047;75;20363;-60
2021/11/11 08:07:38;;;;;;;;;;;;;;;2.63;70.71;103208.20;1908042;75;20113;-60
2021/11/11 08:10:07;;;;;;;;;;;;;;;2.67;70.68;103209.19;1907920;75;20105;-60
2021/11/11 08:12:35;;;;;;;;;;;;;;;2.73;70.55;103203.30;1907978;75;20183;-60
2021/11/11 08:15:02;;;;;;;;;;;;;;;2.79;70.33;103206.13;1908025;75;20117;-60
2021/11/11 08:17:31;;;;;;;;;;;;;;;2.83;70.23;103200.18;1908037;75;20143;-60
2021/11/11 08:19:58;;;;;;;;;;;;;;;2.90;70.26;103199.55;1908126;75;20384;-60
2021/11/11 08:22:27;;;;;;;;;;;;;;;2.90;70.06;103200.84;1907992;75;20114;-61
2021/11/11 08:24:55;;;;;;;;;;;;;;;2.93;70.04;103194.42;1908020;75;20462;-60
2021/11/11 08:27:24;;;;;;;;;;;;;;;3.02;70.07;103184.30;1908089;75;20160;-60
2021/11/11 08:29:52;;;;;;;;;;;;;;;3.17;69.95;103180.41;1908037;75;20101;-60
2021/11/11 08:32:20;;;;;;;;;;;;;;;3.30;69.89;103182.55;1907995;75;20105;-60
2021/11/11 08:34:48;;;;;;;;;;;;;;;3.33;68.69;103173.96;1908028;75;20147;-60
2021/11/11 08:37:16;;;;;;;;;;;;;;;3.38;68.58;103174.56;1908071;75;20121;-60
2021/11/11 08:39:44;;;;;;;;;;;;;;;3.47;67.84;103170.05;1908097;75;20173;-60
2021/11/11 08:42:12;;;;;;;;;;;;;;;3.53;68.25;103169.34;1907999;75;20101;-60
2021/11/11 08:44:44;;;;;;;;;;;;;;;3.45;67.72;103168.70;1908039;75;20147;-60
2021/11/11 08:47:13;;;;;;;;;;;;;;;3.46;68.14;103166.54;1908000;74;20121;-61
2021/11/11 08:49:42;;;;;;;;;;;;;;;3.45;68.12;103164.80;1908064;75;20155;-61
2021/11/11 08:52:10;;;;;;;;;;;;;;;3.44;68.24;103165.62;1907976;75;20101;-60
2021/11/11 08:54:38;;;;;;;;;;;;;;;3.49;68.41;103163.16;1908089;75;20129;-60
2021/11/11 08:57:06;;;;;;;;;;;;;;;3.51;68.28;103163.21;1907988;75;20109;-61
2021/11/11 08:59:34;;;;;;;;;;;;;;;3.51;68.30;103160.17;1908156;75;20117;-61
2021/11/11 09:02:03;;;;;;;;;;;;;;;3.57;67.97;103163.38;1907957;75;20109;-61
2021/11/11 09:04:31;;;;;;;;;;;;;;;3.61;67.92;103157.41;1908026;75;20212;-61
2021/11/11 09:07:00;;;;;;;;;;;;;;;3.73;68.13;103154.29;1908022;75;20101;-60
2021/11/11 09:09:28;;;;;;;;;;;;;;;3.88;67.92;103157.73;1908015;75;20400;-60
2021/11/11 09:11:56;;;;;;;;;;;;;;;4.00;67.47;103147.63;1908001;75;20117;-60
2021/11/11 09:14:23;;;;;;;;;;;;;;;4.32;66.86;103135.87;1907934;75;20153;-60
2021/11/11 09:16:51;;;;;;;;;;;;;;;4.69;65.18;103118.07;1907889;75;20113;-60
2021/11/11 09:19:19;;;;;;;;;;;;;;;5.05;64.31;103116.25;1907990;75;20168;-60
2021/11/11 09:21:48;;;;;;;;;;;;;;;6.21;61.28;103106.34;1907999;75;20125;-60
2021/11/11 09:24:16;;;;;;;;;;;;;;;8.24;56.84;103099.75;1908001;75;20410;-60
2021/11/11 09:26:44;;;;;;;;;;;;;;;8.42;54.42;103089.88;1908005;75;20182;-60
2021/11/11 09:29:11;;;;;;;;;;;;;;;7.41;57.21;103097.16;1907960;75;20183;-61
2021/11/11 09:31:39;;;;;;;;;;;;;;;6.78;58.84;103106.81;1907997;75;20176;-60
2021/11/11 09:34:07;;;;;;;;;;;;;;;7.83;56.47;103097.63;1917084;74;20121;-60
2021/11/11 09:36:35;;;;;;;;;;;;;;;7.38;57.25;103105.41;1927414;74;20370;-61
2021/11/11 09:39:05;;;;;;;;;;;;;;;6.61;57.95;103098.72;1927423;74;20104;-60
2021/11/11 09:41:33;;;;;;;;;;;;;;;6.12;59.65;103104.05;1927553;74;20153;-60
2021/11/11 09:44:02;;;;;;;;;;;;;;;5.81;60.24;103102.58;1927344;74;20143;-60
2021/11/11 09:46:29;;;;;;;;;;;;;;;5.71;61.09;103099.31;1927544;74;20120;-60
2021/11/11 09:48:57;;;;;;;;;;;;;;;5.83;61.18;103096.95;1927393;74;20148;-60
2021/11/11 09:51:25;;;;;;;;;;;;;;;6.16;60.87;103091.46;1927426;74;20117;-60
2021/11/11 09:59:29;;;;;;;;;;;;;;;9.91;51.68;103074.75;1927593;74;20113;-60
2021/11/11 10:01:59;;;;;;;;;;;;;;;11.15;49.02;103079.42;1927673;74;20347;-61
2021/11/11 10:04:27;;;;;;;;;;;;;;;11.76;47.79;103072.48;1927425;74;20391;-61
2021/11/11 10:06:55;;;;;;;;;;;;;;;12.49;46.56;103070.63;1927301;74;20167;-61
2021/11/11 10:09:24;;;;;;;;;;;;;;;12.72;45.29;103063.30;1927542;74;20113;-60
2021/11/11 10:11:54;;;;;;;;;;;;;;;12.77;43.85;103061.08;1927528;74;20100;-60
2021/11/11 10:14:23;;;;;;;;;;;;;;;12.73;43.84;103065.53;1927274;74;20104;-60
2021/11/11 10:16:55;;;;;;;;;;;;;;;13.07;43.47;103058.05;1927399;74;20101;-60
2021/11/11 10:19:24;;;;;;;;;;;;;;;13.09;42.51;103050.10;1927274;74;20116;-61
2021/11/11 10:21:58;;;;;;;;;;;;;;;13.28;43.42;103048.11;1927385;74;20100;-61
2021/11/11 10:24:30;;;;;;;;;;;;;;;13.56;42.73;103049.08;1927356;74;20129;-60
2021/11/11 10:26:59;;;;;;;;;;;;;;;13.60;42.27;103051.64;1927495;74;20108;-60
2021/11/11 10:29:33;;;;;;;;;;;;;;;13.42;42.82;103047.48;1927207;74;20146;-61
2021/11/11 10:31:59;;;;;;;;;;;;;;;13.41;41.77;103049.72;1926066;74;20359;-61
2021/11/11 10:34:27;;;;;;;;;;;;;;;12.93;41.86;103040.19;1920127;74;20144;-60
2021/11/11 10:36:55;;;;;;;;;;;;;;;12.78;42.47;103035.95;1907946;75;20168;-61
2021/11/11 10:39:24;;;;;;;;;;;;;;;12.86;42.43;103035.86;1908026;75;20148;-61
2021/11/11 10:41:53;;;;;;;;;;;;;;;12.92;42.81;103033.13;1907969;74;20113;-60
2021/11/11 10:44:22;;;;;;;;;;;;;;;12.88;42.08;103029.65;1907844;75;20147;-61
2021/11/11 10:46:51;;;;;;;;;;;;;;;12.66;42.30;103029.02;1907900;75;20113;-61
2021/11/11 10:49:21;;;;;;;;;;;;;;;12.61;41.52;103040.54;1907932;75;20394;-61
2021/11/11 10:51:49;;;;;;;;;;;;;;;12.31;42.27;103034.23;1908022;74;20105;-61
2021/11/11 10:54:17;;;;;;;;;;;;;;;12.27;42.63;103037.80;1907929;75;20113;-60
2021/11/11 10:56:46;;;;;;;;;;;;;;;12.20;42.72;103023.34;1907947;75;20156;-60
2021/11/11 10:59:18;;;;;;;;;;;;;;;12.58;43.33;103022.06;1907721;75;20101;-61
2021/11/11 11:01:46;;;;;;;;;;;;;;;13.01;42.74;103021.57;1908024;75;20364;-61
2021/11/11 11:04:23;;;;;;;;;;;;;;;12.84;41.97;103012.53;1907976;75;20184;-61
2021/11/11 11:06:52;;;;;;;;;;;;;;;12.18;42.50;103015.44;1907948;75;20109;-61
2021/11/11 11:09:19;;;;;;;;;;;;;;;11.93;43.28;103010.38;1907921;75;20117;-60
2021/11/11 11:11:47;;;;;;;;;;;;;;;11.88;43.81;103011.28;1907885;75;20184;-61
2021/11/11 11:14:17;;;;;;;;;;;;;;;12.12;43.68;103012.86;1907871;75;20113;-61
2021/11/11 11:16:46;;;;;;;;;;;;;;;11.80;43.82;103008.67;1907922;75;20386;-61
2021/11/11 11:19:16;;;;;;;;;;;;;;;11.00;45.33;103007.86;1908000;75;20156;-61
2021/11/11 11:21:48;;;;;;;;;;;;;;;9.92;47.21;103001.48;1908100;75;20113;-60
2021/11/11 11:24:21;;;;;;;;;;;;;;;9.13;48.87;103004.45;1908046;75;20493;-60
2021/11/11 11:26:50;;;;;;;;;;;;;;;9.53;49.03;102997.09;1908150;74;20109;-60
2021/11/11 11:29:26;;;;;;;;;;;;;;;10.13;47.83;102997.11;1908055;75;20117;-60
2021/11/11 11:31:57;;;;;;;;;;;;;;;10.33;47.31;102988.77;1907830;74;20155;-60
2021/11/11 11:34:24;;;;;;;;;;;;;;;10.47;47.29;102994.44;1907830;74;20114;-61
2021/11/11 11:36:55;;;;;;;;;;;;;;;10.68;47.33;102998.75;1908458;74;20360;-61
2021/11/11 11:39:28;;;;;;;;;;;;;;;10.65;47.16;102994.38;1908066;75;20391;-60
2021/11/11 11:41:58;;;;;;;;;;;;;;;10.44;47.19;102996.66;1908115;74;20151;-60
2021/11/11 11:44:28;;;;;;;;;;;;;;;9.89;47.50;102998.00;1908035;75;20113;-60
2021/11/11 11:46:59;;;;;;;;;;;;;;;9.13;48.98;102998.30;1907964;75;20117;-61
2021/11/11 11:49:26;;;;;;;;;;;;;;;8.48;50.54;102989.72;1908063;75;20167;-60
2021/11/11 11:51:54;;;;;;;;;;;;;;;8.05;51.49;102995.08;1908061;75;20161;-60
2021/11/11 11:54:34;;;;;;;;;;;;;;;7.64;52.29;102991.69;1908057;75;20117;-60
2021/11/11 11:57:04;;;;;;;;;;;;;;;7.29;53.19;102983.91;1908451;74;20117;-60
2021/11/11 11:59:32;;;;;;;;;;;;;;;7.00;53.95;102991.44;1907816;74;20117;-61
2021/11/11 12:07:34;;;;;;;;;;;;;;;6.44;55.92;102981.12;1908052;75;20113;-60
2021/11/11 12:13:10;;;;;;;;;;;;;;;6.47;56.57;102978.09;1908035;75;20140;-60
2021/11/11 12:15:26;;;;;;;;;;;;;;;6.58;56.69;102976.93;1905865;75;20140;-60
2021/11/11 12:28:31;;;;;;;;;;;;;;;6.60;56.85;102980.88;1907591;74;20379;-60
2021/11/11 12:39:51;;;;;;;;;;;;;;;6.26;57.96;102972.13;1927416;74;20116;-60
2021/11/11 12:42:39;;;;;;;;;;;;;;;6.08;58.52;102970.11;1927419;74;20359;-60
2021/11/11 12:45:04;;;;;;;;;;;;;;;5.95;58.70;102971.66;1925982;74;20120;-60
2021/11/11 12:47:43;;;;;;;;;;;;;;;5.78;59.07;102970.05;1927373;74;20147;-61
2021/11/11 12:50:29;;;;;;;;;;;;;;;5.61;59.48;102961.92;1927436;74;20105;-60
2021/11/11 12:53:13;;;;;;;;;;;;;;;5.52;59.73;102962.20;1927519;74;20143;-61
2021/11/11 12:55:58;;;;;;;;;;;;;;;5.41;59.93;102960.27;1927398;74;20161;-61
2021/11/11 12:58:31;;;;;;;;;;;;;;;5.34;60.39;102959.70;1926781;74;20100;-61
2021/11/11 13:01:00;;;;;;;;;;;;;;;5.27;60.69;102953.90;1927496;74;20191;-61
2021/11/11 13:03:42;;;;;;;;;;;;;;;5.24;60.85;102952.56;1927458;74;20120;-61
2021/11/11 13:06:10;;;;;;;;;;;;;;;5.17;60.90;102946.77;1910683;74;20116;-61
2021/11/11 13:08:52;;;;;;;;;;;;;;;5.13;61.18;102951.48;1927409;74;20109;-61
2021/11/11 13:11:21;;;;;;;;;;;;;;;5.10;61.30;102950.98;1927413;74;20121;-59
2021/11/11 13:13:50;;;;;;;;;;;;;;;5.09;61.43;102950.95;1926345;74;20113;-59
2021/11/11 13:16:19;;;;;;;;;;;;;;;5.08;61.64;102943.98;1928184;74;20117;-59
2021/11/11 13:18:55;;;;;;;;;;;;;;;5.07;61.71;102938.28;1927349;74;20143;-60
2021/11/11 13:21:29;;;;;;;;;;;;;;;5.03;61.87;102935.64;1927461;74;20116;-59
2021/11/11 13:24:12;;;;;;;;;;;;;;;5.02;62.38;102935.17;1927121;74;20117;-60
2021/11/11 13:54:02;;;;;;;;;;;;;;;4.73;62.72;102928.06;1927437;74;20179;-60
2021/11/11 14:00:14;;;;;;;;;;;;;;;4.42;63.69;102910.89;1927422;74;20108;-59
2021/11/11 15:15:22;;;;;;;;;;;;;;;3.23;65.23;102881.20;1875618;75;20159;-59
2021/11/11 15:17:45;;;;;;;;;;;;;;;3.20;65.22;102887.19;1873432;77;20447;-60
2021/11/11 16:02:47;;;;;;;;;;;;;;;2.42;66.21;102913.66;1914950;75;20119;-60
2021/11/11 16:23:53;;;;;;;;;;;;;;;2.16;66.27;102917.66;1915017;75;20146;-61
2021/11/11 16:26:19;;;;;;;;;;;;;;;2.15;66.27;102918.47;1913923;75;20118;-61
2021/11/11 16:28:49;;;;;;;;;;;;;;;2.12;66.45;102917.06;1914928;75;20111;-61
2021/11/11 16:31:24;;;;;;;;;;;;;;;2.10;66.63;102916.14;1914884;75;20095;-61
2021/11/11 16:33:56;;;;;;;;;;;;;;;2.06;66.99;102912.99;1914952;74;20111;-62
2021/11/11 16:36:25;;;;;;;;;;;;;;;2.01;68.08;102913.26;1914887;74;20353;-61
2021/11/11 16:38:57;;;;;;;;;;;;;;;1.95;68.90;102897.06;1914927;74;20144;-62
2021/11/11 16:41:24;;;;;;;;;;;;;;;1.87;69.15;102899.42;1914704;75;20114;-61
2021/11/11 16:43:51;;;;;;;;;;;;;;;1.82;68.94;102903.59;1914919;75;20115;-60